sensor_id;sensor_type;location;lat;lon;timestamp;temperature;humidity
74494;SHT31;62978;51.094;-115.362;2022-08-19T00:00:49;45.31;14.58
74494;SHT31;62978;51.094;-115.362;2022-08-19T00:18:34;40.25;17.91
74494;SHT31;62978;51.094;-115.362;2022-08-19T00:21:57;40.01;18.18
74494;SHT31;62978;51.094;-115.362;2022-08-19T00:25:00;39.15;18.75
74494;SHT31;62978;51.094;-115.362;2022-08-19T00:39:21;37.29;20.55
74494;SHT31;62978;51.094;-115.362;2022-08-19T00:50:31;36.14;21.48
74494;SHT31;62978;51.094;-115.362;2022-08-19T00:53:02;36.13;21.48
74494;SHT31;62978;51.094;-115.362;2022-08-19T00:55:44;36.74;21.17
74494;SHT31;62978;51.094;-115.362;2022-08-19T01:20:00;34.23;23.31
74494;SHT31;62978;51.094;-115.362;2022-08-19T01:40:30;32.12;25.62
74494;SHT31;62978;51.094;-115.362;2022-08-19T01:47:42;31.60;27.51
74494;SHT31;62978;51.094;-115.362;2022-08-19T01:50:33;31.35;27.38
74494;SHT31;62978;51.094;-115.362;2022-08-19T02:08:18;29.63;27.72
74494;SHT31;62978;51.094;-115.362;2022-08-19T02:15:39;29.33;28.28
74494;SHT31;62978;51.094;-115.362;2022-08-19T02:18:30;29.20;28.44
74494;SHT31;62978;51.094;-115.362;2022-08-19T02:21:51;29.02;28.56
74494;SHT31;62978;51.094;-115.362;2022-08-19T02:35:34;28.13;29.75
74494;SHT31;62978;51.094;-115.362;2022-08-19T02:45:48;27.50;31.13
74494;SHT31;62978;51.094;-115.362;2022-08-19T02:49:19;27.33;31.52
74494;SHT31;62978;51.094;-115.362;2022-08-19T02:52:47;27.15;31.46
74494;SHT31;62978;51.094;-115.362;2022-08-19T02:55:41;27.01;31.67
74494;SHT31;62978;51.094;-115.362;2022-08-19T02:58:39;26.85;31.78
74494;SHT31;62978;51.094;-115.362;2022-08-19T03:04:48;26.54;32.63
74494;SHT31;62978;51.094;-115.362;2022-08-19T03:07:56;26.39;33.18
74494;SHT31;62978;51.094;-115.362;2022-08-19T03:13:51;26.04;33.79
74494;SHT31;62978;51.094;-115.362;2022-08-19T03:17:17;25.91;33.87
74494;SHT31;62978;51.094;-115.362;2022-08-19T03:20:28;25.80;34.09
74494;SHT31;62978;51.094;-115.362;2022-08-19T03:23:11;25.70;34.28
74494;SHT31;62978;51.094;-115.362;2022-08-19T03:26:12;25.59;34.86
74494;SHT31;62978;51.094;-115.362;2022-08-19T03:32:36;25.36;34.94
74494;SHT31;62978;51.094;-115.362;2022-08-19T03:35:22;25.27;35.24
74494;SHT31;62978;51.094;-115.362;2022-08-19T03:38:21;25.19;35.46
74494;SHT31;62978;51.094;-115.362;2022-08-19T03:41:22;25.07;36.13
74494;SHT31;62978;51.094;-115.362;2022-08-19T03:44:42;24.94;36.14
74494;SHT31;62978;51.094;-115.362;2022-08-19T03:51:15;24.69;36.71
74494;SHT31;62978;51.094;-115.362;2022-08-19T03:54:08;24.57;37.13
74494;SHT31;62978;51.094;-115.362;2022-08-19T03:57:19;24.43;37.43
74494;SHT31;62978;51.094;-115.362;2022-08-19T04:03:14;24.28;37.64
74494;SHT31;62978;51.094;-115.362;2022-08-19T04:06:22;24.18;37.88
74494;SHT31;62978;51.094;-115.362;2022-08-19T04:09:12;24.12;37.93
74494;SHT31;62978;51.094;-115.362;2022-08-19T04:12:34;24.05;37.84
74494;SHT31;62978;51.094;-115.362;2022-08-19T04:15:23;23.97;38.07
74494;SHT31;62978;51.094;-115.362;2022-08-19T04:18:08;23.92;38.41
74494;SHT31;62978;51.094;-115.362;2022-08-19T04:20:58;23.85;38.76
74494;SHT31;62978;51.094;-115.362;2022-08-19T04:23:55;23.77;39.01
74494;SHT31;62978;51.094;-115.362;2022-08-19T04:26:53;23.69;39.10
74494;SHT31;62978;51.094;-115.362;2022-08-19T04:29:53;23.63;39.21
74494;SHT31;62978;51.094;-115.362;2022-08-19T04:32:21;23.61;38.98
74494;SHT31;62978;51.094;-115.362;2022-08-19T04:35:34;23.56;38.91
74494;SHT31;62978;51.094;-115.362;2022-08-19T04:38:40;23.50;38.97
74494;SHT31;62978;51.094;-115.362;2022-08-19T04:41:08;23.48;39.18
74494;SHT31;62978;51.094;-115.362;2022-08-19T04:44:07;23.41;39.49
74494;SHT31;62978;51.094;-115.362;2022-08-19T04:47:56;23.34;39.67
74494;SHT31;62978;51.094;-115.362;2022-08-19T04:50:29;23.29;39.76
74494;SHT31;62978;51.094;-115.362;2022-08-19T04:55:50;23.19;40.51
74494;SHT31;62978;51.094;-115.362;2022-08-19T04:58:46;23.10;41.09
74494;SHT31;62978;51.094;-115.362;2022-08-19T05:04:58;22.87;41.67
74494;SHT31;62978;51.094;-115.362;2022-08-19T05:07:54;22.77;41.67
74494;SHT31;62978;51.094;-115.362;2022-08-19T05:10:40;22.69;41.80
74494;SHT31;62978;51.094;-115.362;2022-08-19T05:13:42;22.60;41.97
74494;SHT31;62978;51.094;-115.362;2022-08-19T05:19:57;22.39;42.89
74494;SHT31;62978;51.094;-115.362;2022-08-19T05:23:03;22.27;43.04
74494;SHT31;62978;51.094;-115.362;2022-08-19T05:25:47;22.16;43.70
74494;SHT31;62978;51.094;-115.362;2022-08-19T05:28:54;22.00;45.37
74494;SHT31;62978;51.094;-115.362;2022-08-19T05:34:53;21.57;46.82
74494;SHT31;62978;51.094;-115.362;2022-08-19T05:38:00;21.38;46.71
74494;SHT31;62978;51.094;-115.362;2022-08-19T05:40:40;21.28;47.07
74494;SHT31;62978;51.094;-115.362;2022-08-19T05:43:15;21.18;47.33
74494;SHT31;62978;51.094;-115.362;2022-08-19T05:46:04;21.04;47.85
74494;SHT31;62978;51.094;-115.362;2022-08-19T05:49:16;20.89;47.87
74494;SHT31;62978;51.094;-115.362;2022-08-19T05:52:54;20.69;48.78
74494;SHT31;62978;51.094;-115.362;2022-08-19T05:58:46;20.42;48.99
74494;SHT31;62978;51.094;-115.362;2022-08-19T06:01:26;20.36;49.31
74494;SHT31;62978;51.094;-115.362;2022-08-19T06:04:13;20.27;49.58
74494;SHT31;62978;51.094;-115.362;2022-08-19T06:07:41;20.17;49.94
74494;SHT31;62978;51.094;-115.362;2022-08-19T06:10:46;20.06;50.40
74494;SHT31;62978;51.094;-115.362;2022-08-19T06:13:16;19.94;51.06
74494;SHT31;62978;51.094;-115.362;2022-08-19T06:26:43;19.39;51.68
74494;SHT31;62978;51.094;-115.362;2022-08-19T06:29:41;19.31;51.88
74494;SHT31;62978;51.094;-115.362;2022-08-19T06:32:57;19.24;51.93
74494;SHT31;62978;51.094;-115.362;2022-08-19T06:44:43;18.87;52.62
74494;SHT31;62978;51.094;-115.362;2022-08-19T06:48:09;18.67;53.20
74494;SHT31;62978;51.094;-115.362;2022-08-19T06:58:30;18.25;54.63
74494;SHT31;62978;51.094;-115.362;2022-08-19T07:00:58;18.18;54.99
74494;SHT31;62978;51.094;-115.362;2022-08-19T07:03:31;18.09;55.02
74494;SHT31;62978;51.094;-115.362;2022-08-19T07:06:04;18.05;55.12
74494;SHT31;62978;51.094;-115.362;2022-08-19T07:08:38;17.99;55.23
74494;SHT31;62978;51.094;-115.362;2022-08-19T07:11:09;17.93;55.23
74494;SHT31;62978;51.094;-115.362;2022-08-19T07:13:41;17.87;55.16
74494;SHT31;62978;51.094;-115.362;2022-08-19T07:16:13;17.79;55.49
74494;SHT31;62978;51.094;-115.362;2022-08-19T07:18:47;17.70;55.71
74494;SHT31;62978;51.094;-115.362;2022-08-19T07:21:47;17.64;55.94
74494;SHT31;62978;51.094;-115.362;2022-08-19T07:24:31;17.55;56.35
74494;SHT31;62978;51.094;-115.362;2022-08-19T07:27:01;17.46;56.57
74494;SHT31;62978;51.094;-115.362;2022-08-19T07:29:31;17.39;56.73
74494;SHT31;62978;51.094;-115.362;2022-08-19T07:32:14;17.30;56.87
74494;SHT31;62978;51.094;-115.362;2022-08-19T07:41:25;17.01;57.93
74494;SHT31;62978;51.094;-115.362;2022-08-19T07:44:02;16.93;58.03
74494;SHT31;62978;51.094;-115.362;2022-08-19T07:46:51;16.89;58.26
74494;SHT31;62978;51.094;-115.362;2022-08-19T07:49:29;16.81;58.63
74494;SHT31;62978;51.094;-115.362;2022-08-19T07:51:58;16.73;58.99
74494;SHT31;62978;51.094;-115.362;2022-08-19T07:55:04;16.74;58.96
74494;SHT31;62978;51.094;-115.362;2022-08-19T07:58:22;16.71;58.83
74494;SHT31;62978;51.094;-115.362;2022-08-19T08:01:04;16.70;59.08
74494;SHT31;62978;51.094;-115.362;2022-08-19T08:04:10;16.62;59.36
74494;SHT31;62978;51.094;-115.362;2022-08-19T08:07:02;16.58;59.49
74494;SHT31;62978;51.094;-115.362;2022-08-19T08:17:24;16.25;60.43
74494;SHT31;62978;51.094;-115.362;2022-08-19T08:20:16;16.21;60.43
74494;SHT31;62978;51.094;-115.362;2022-08-19T08:22:58;16.17;60.58
74494;SHT31;62978;51.094;-115.362;2022-08-19T08:25:55;16.10;60.70
74494;SHT31;62978;51.094;-115.362;2022-08-19T08:31:55;15.96;60.83
74494;SHT31;62978;51.094;-115.362;2022-08-19T08:34:57;15.89;60.90
74494;SHT31;62978;51.094;-115.362;2022-08-19T08:37:51;15.83;60.96
74494;SHT31;62978;51.094;-115.362;2022-08-19T08:44:02;15.64;61.43
74494;SHT31;62978;51.094;-115.362;2022-08-19T08:54:07;15.36;63.09
74494;SHT31;62978;51.094;-115.362;2022-08-19T08:57:48;15.25;63.01
74494;SHT31;62978;51.094;-115.362;2022-08-19T09:04:37;15.14;63.16
74494;SHT31;62978;51.094;-115.362;2022-08-19T09:22:32;14.87;63.53
74494;SHT31;62978;51.094;-115.362;2022-08-19T09:25:32;14.77;64.31
74494;SHT31;62978;51.094;-115.362;2022-08-19T09:28:36;14.62;64.67
74494;SHT31;62978;51.094;-115.362;2022-08-19T09:31:37;14.54;64.72
74494;SHT31;62978;51.094;-115.362;2022-08-19T09:38:23;14.60;64.44
74494;SHT31;62978;51.094;-115.362;2022-08-19T09:44:59;14.52;64.79
74494;SHT31;62978;51.094;-115.362;2022-08-19T09:47:36;14.39;64.83
74494;SHT31;62978;51.094;-115.362;2022-08-19T09:50:31;14.38;64.47
74494;SHT31;62978;51.094;-115.362;2022-08-19T10:06:55;14.14;65.11
74494;SHT31;62978;51.094;-115.362;2022-08-19T10:10:21;14.11;65.38
74494;SHT31;62978;51.094;-115.362;2022-08-19T10:13:39;14.11;65.54
74494;SHT31;62978;51.094;-115.362;2022-08-19T10:16:30;13.99;66.38
74494;SHT31;62978;51.094;-115.362;2022-08-19T10:33:15;13.76;66.49
74494;SHT31;62978;51.094;-115.362;2022-08-19T10:36:16;13.69;66.39
74494;SHT31;62978;51.094;-115.362;2022-08-19T10:39:17;13.68;66.36
74494;SHT31;62978;51.094;-115.362;2022-08-19T10:42:07;13.63;66.50
74494;SHT31;62978;51.094;-115.362;2022-08-19T10:55:29;13.67;66.04
74494;SHT31;62978;51.094;-115.362;2022-08-19T10:58:41;13.65;66.32
74494;SHT31;62978;51.094;-115.362;2022-08-19T11:01:37;13.64;66.18
74494;SHT31;62978;51.094;-115.362;2022-08-19T11:05:18;13.63;66.24
74494;SHT31;62978;51.094;-115.362;2022-08-19T11:08:45;13.59;66.38
74494;SHT31;62978;51.094;-115.362;2022-08-19T11:15:29;13.44;67.15
74494;SHT31;62978;51.094;-115.362;2022-08-19T11:18:47;13.23;68.15
74494;SHT31;62978;51.094;-115.362;2022-08-19T11:25:54;13.18;67.79
74494;SHT31;62978;51.094;-115.362;2022-08-19T11:46:32;13.16;68.10
74494;SHT31;62978;51.094;-115.362;2022-08-19T11:49:32;13.12;68.14
74494;SHT31;62978;51.094;-115.362;2022-08-19T11:52:33;13.10;68.07
74494;SHT31;62978;51.094;-115.362;2022-08-19T11:55:38;13.07;68.57
74494;SHT31;62978;51.094;-115.362;2022-08-19T12:02:14;13.11;68.18
74494;SHT31;62978;51.094;-115.362;2022-08-19T12:12:05;13.25;67.68
74494;SHT31;62978;51.094;-115.362;2022-08-19T12:14:47;13.26;67.65
74494;SHT31;62978;51.094;-115.362;2022-08-19T12:20:41;13.32;67.72
74494;SHT31;62978;51.094;-115.362;2022-08-19T12:26:51;13.26;67.97
74494;SHT31;62978;51.094;-115.362;2022-08-19T12:29:37;13.26;67.65
74494;SHT31;62978;51.094;-115.362;2022-08-19T12:32:51;13.30;67.66
74494;SHT31;62978;51.094;-115.362;2022-08-19T12:40:01;13.45;67.16
74494;SHT31;62978;51.094;-115.362;2022-08-19T12:56:59;13.59;67.40
74494;SHT31;62978;51.094;-115.362;2022-08-19T13:00:00;13.63;67.64
74494;SHT31;62978;51.094;-115.362;2022-08-19T13:06:25;13.78;67.06
74494;SHT31;62978;51.094;-115.362;2022-08-19T13:09:02;13.87;66.88
74494;SHT31;62978;51.094;-115.362;2022-08-19T13:11:30;13.95;66.73
74494;SHT31;62978;51.094;-115.362;2022-08-19T13:14:15;14.03;66.68
74494;SHT31;62978;51.094;-115.362;2022-08-19T13:17:22;14.17;66.38
74494;SHT31;62978;51.094;-115.362;2022-08-19T13:20:39;14.27;66.19
74494;SHT31;62978;51.094;-115.362;2022-08-19T13:26:30;14.40;66.07
74494;SHT31;62978;51.094;-115.362;2022-08-19T13:29:51;14.41;66.20
74494;SHT31;62978;51.094;-115.362;2022-08-19T13:36:18;14.37;66.50
74494;SHT31;62978;51.094;-115.362;2022-08-19T13:39:37;14.34;66.56
74494;SHT31;62978;51.094;-115.362;2022-08-19T13:43:02;14.31;66.62
74494;SHT31;62978;51.094;-115.362;2022-08-19T13:46:26;14.28;66.93
74494;SHT31;62978;51.094;-115.362;2022-08-19T13:49:25;14.24;66.98
74494;SHT31;62978;51.094;-115.362;2022-08-19T13:56:45;14.28;66.93
74494;SHT31;62978;51.094;-115.362;2022-08-19T14:06:37;14.54;67.22
74494;SHT31;62978;51.094;-115.362;2022-08-19T14:13:03;14.77;66.81
74494;SHT31;62978;51.094;-115.362;2022-08-19T14:43:44;16.17;61.59
74494;SHT31;62978;51.094;-115.362;2022-08-19T14:46:26;16.28;61.27
74494;SHT31;62978;51.094;-115.362;2022-08-19T14:49:43;16.40;60.94
74494;SHT31;62978;51.094;-115.362;2022-08-19T14:52:14;16.51;60.90
74494;SHT31;62978;51.094;-115.362;2022-08-19T14:54:44;16.60;60.52
74494;SHT31;62978;51.094;-115.362;2022-08-19T14:57:16;16.67;60.22
74494;SHT31;62978;51.094;-115.362;2022-08-19T15:03:48;16.91;59.52
74494;SHT31;62978;51.094;-115.362;2022-08-19T15:06:37;17.01;59.42
74494;SHT31;62978;51.094;-115.362;2022-08-19T15:09:08;17.09;58.96
74494;SHT31;62978;51.094;-115.362;2022-08-19T15:12:20;17.20;58.96
74494;SHT31;62978;51.094;-115.362;2022-08-19T15:14:47;17.29;58.92
74494;SHT31;62978;51.094;-115.362;2022-08-19T15:17:41;17.42;58.69
74494;SHT31;62978;51.094;-115.362;2022-08-19T15:20:17;17.54;58.04
74494;SHT31;62978;51.094;-115.362;2022-08-19T15:23:06;17.66;57.91
74494;SHT31;62978;51.094;-115.362;2022-08-19T15:25:46;17.77;58.01
74494;SHT31;62978;51.094;-115.362;2022-08-19T15:28:14;17.91;57.72
74494;SHT31;62978;51.094;-115.362;2022-08-19T15:31:15;18.03;57.50
74494;SHT31;62978;51.094;-115.362;2022-08-19T15:34:38;18.18;56.16
74494;SHT31;62978;51.094;-115.362;2022-08-19T15:37:19;18.28;55.99
74494;SHT31;62978;51.094;-115.362;2022-08-19T15:40:06;18.42;55.61
74494;SHT31;62978;51.094;-115.362;2022-08-19T15:42:56;18.58;55.25
74494;SHT31;62978;51.094;-115.362;2022-08-19T15:45:44;18.79;54.77
74494;SHT31;62978;51.094;-115.362;2022-08-19T15:48:16;18.98;54.03
74494;SHT31;62978;51.094;-115.362;2022-08-19T15:51:13;19.16;53.60
74494;SHT31;62978;51.094;-115.362;2022-08-19T15:53:41;19.34;52.98
74494;SHT31;62978;51.094;-115.362;2022-08-19T15:56:28;19.52;52.49
74494;SHT31;62978;51.094;-115.362;2022-08-19T16:02:48;19.83;51.37
74494;SHT31;62978;51.094;-115.362;2022-08-19T16:05:38;19.91;51.31
74494;SHT31;62978;51.094;-115.362;2022-08-19T16:12:06;20.07;50.31
74494;SHT31;62978;51.094;-115.362;2022-08-19T16:15:55;20.18;50.54
74494;SHT31;62978;51.094;-115.362;2022-08-19T16:19:05;20.28;50.32
74494;SHT31;62978;51.094;-115.362;2022-08-19T16:21:48;20.35;50.30
74494;SHT31;62978;51.094;-115.362;2022-08-19T16:24:33;20.42;50.30
74494;SHT31;62978;51.094;-115.362;2022-08-19T16:27:07;20.48;50.43
74494;SHT31;62978;51.094;-115.362;2022-08-19T16:29:42;20.57;50.15
74494;SHT31;62978;51.094;-115.362;2022-08-19T16:32:19;20.66;49.84
74494;SHT31;62978;51.094;-115.362;2022-08-19T16:34:49;20.77;49.75
74494;SHT31;62978;51.094;-115.362;2022-08-19T16:37:17;20.89;49.19
74494;SHT31;62978;51.094;-115.362;2022-08-19T16:40:08;21.09;49.19
74494;SHT31;62978;51.094;-115.362;2022-08-19T16:42:47;21.27;48.53
74494;SHT31;62978;51.094;-115.362;2022-08-19T16:45:15;21.43;47.91
74494;SHT31;62978;51.094;-115.362;2022-08-19T16:47:46;21.54;47.27
74494;SHT31;62978;51.094;-115.362;2022-08-19T16:50:15;21.58;46.88
74494;SHT31;62978;51.094;-115.362;2022-08-19T16:52:52;21.60;46.83
74494;SHT31;62978;51.094;-115.362;2022-08-19T16:55:44;21.61;46.75
74494;SHT31;62978;51.094;-115.362;2022-08-19T16:58:27;21.67;47.13
74494;SHT31;62978;51.094;-115.362;2022-08-19T17:01:55;21.83;47.39
74494;SHT31;62978;51.094;-115.362;2022-08-19T17:08:25;22.25;46.01
74494;SHT31;62978;51.094;-115.362;2022-08-19T17:15:03;22.63;44.77
74494;SHT31;62978;51.094;-115.362;2022-08-19T17:18:21;22.75;43.98
74494;SHT31;62978;51.094;-115.362;2022-08-19T17:25:27;23.13;43.91
74494;SHT31;62978;51.094;-115.362;2022-08-19T17:28:48;23.36;44.36
74494;SHT31;62978;51.094;-115.362;2022-08-19T17:38:51;24.05;42.18
74494;SHT31;62978;51.094;-115.362;2022-08-19T17:42:17;24.20;41.76
74494;SHT31;62978;51.094;-115.362;2022-08-19T17:45:34;24.41;41.75
74494;SHT31;62978;51.094;-115.362;2022-08-19T17:56:06;25.19;39.57
74494;SHT31;62978;51.094;-115.362;2022-08-19T17:59:29;25.44;40.12
74494;SHT31;62978;51.094;-115.362;2022-08-19T18:02:25;25.75;39.60
74494;SHT31;62978;51.094;-115.362;2022-08-19T18:09:42;26.50;37.72
74494;SHT31;62978;51.094;-115.362;2022-08-19T18:35:02;28.79;33.68
74494;SHT31;62978;51.094;-115.362;2022-08-19T18:38:15;29.02;32.65
74494;SHT31;62978;51.094;-115.362;2022-08-19T18:41:04;29.10;32.08
74494;SHT31;62978;51.094;-115.362;2022-08-19T18:55:35;30.10;30.30
74494;SHT31;62978;51.094;-115.362;2022-08-19T19:00:48;30.07;30.25
74494;SHT31;62978;51.094;-115.362;2022-08-19T19:04:27;30.21;29.71
74494;SHT31;62978;51.094;-115.362;2022-08-19T19:07:49;30.47;29.46
74494;SHT31;62978;51.094;-115.362;2022-08-19T19:11:38;30.59;28.82
74494;SHT31;62978;51.094;-115.362;2022-08-19T19:18:17;31.42;28.71
74494;SHT31;62978;51.094;-115.362;2022-08-19T19:21:30;31.74;28.33
74494;SHT31;62978;51.094;-115.362;2022-08-19T19:24:37;32.03;27.44
74494;SHT31;62978;51.094;-115.362;2022-08-19T19:31:47;31.97;25.04
74494;SHT31;62978;51.094;-115.362;2022-08-19T19:39:02;32.04;26.47
74494;SHT31;62978;51.094;-115.362;2022-08-19T19:45:32;32.33;25.61
74494;SHT31;62978;51.094;-115.362;2022-08-19T19:59:44;32.74;24.55
74494;SHT31;62978;51.094;-115.362;2022-08-19T20:17:55;33.41;23.64
74494;SHT31;62978;51.094;-115.362;2022-08-19T20:47:26;33.62;21.99
74494;SHT31;62978;51.094;-115.362;2022-08-19T20:54:39;33.79;21.54
74494;SHT31;62978;51.094;-115.362;2022-08-19T21:05:43;34.50;20.40
74494;SHT31;62978;51.094;-115.362;2022-08-19T21:09:10;34.63;20.14
74494;SHT31;62978;51.094;-115.362;2022-08-19T21:19:21;39.55;18.95
74494;SHT31;62978;51.094;-115.362;2022-08-19T22:33:40;54.19;9.50
74494;SHT31;62978;51.094;-115.362;2022-08-19T22:37:02;53.92;9.42
74494;SHT31;62978;51.094;-115.362;2022-08-19T22:43:39;50.33;10.33
74494;SHT31;62978;51.094;-115.362;2022-08-19T22:50:29;52.76;9.59
74494;SHT31;62978;51.094;-115.362;2022-08-19T22:53:00;53.18;9.23
74494;SHT31;62978;51.094;-115.362;2022-08-19T23:29:42;47.91;11.00
74494;SHT31;62978;51.094;-115.362;2022-08-19T23:33:21;47.31;11.34
74494;SHT31;62978;51.094;-115.362;2022-08-19T23:36:49;47.18;11.11
74494;SHT31;62978;51.094;-115.362;2022-08-19T23:40:06;47.11;11.40
74494;SHT31;62978;51.094;-115.362;2022-08-19T23:42:53;46.82;11.91
74494;SHT31;62978;51.094;-115.362;2022-08-19T23:46:20;45.51;12.67
74494;SHT31;62978;51.094;-115.362;2022-08-19T23:52:45;42.10;14.11
74494;SHT31;62978;51.094;-115.362;2022-08-19T23:55:48;41.73;14.65
74494;SHT31;62978;51.094;-115.362;2022-08-19T23:59:16;42.17;14.70
